createdAt,value
2023-02-24T00:01:51.515Z,94975.06
2023-02-24T00:04:21.502Z,94973.75
2023-02-24T00:06:49.700Z,94977.50
2023-02-24T00:09:20.114Z,94968.09
2023-02-24T00:11:53.581Z,94961.38
2023-02-24T00:14:21.395Z,94962.69
2023-02-24T00:16:50.781Z,94958.63
2023-02-24T00:19:20.961Z,94963.09
2023-02-24T00:21:49.124Z,94955.84
2023-02-24T00:24:17.051Z,94959.75
2023-02-24T00:26:45.998Z,94953.78
2023-02-24T00:29:14.489Z,94952.16
2023-02-24T00:31:43.266Z,94951.84
2023-02-24T00:34:15.093Z,94951.97
2023-02-24T00:36:42.926Z,94951.09
2023-02-24T00:39:11.095Z,94949.91
2023-02-24T00:41:41.712Z,94949.28
2023-02-24T00:44:12.059Z,94945.66
2023-02-24T00:46:42.284Z,94945.34
2023-02-24T00:49:17.177Z,94946.03
2023-02-24T00:51:46.809Z,94946.53
2023-02-24T00:54:16.101Z,94943.78
2023-02-24T00:56:45.251Z,94941.59
2023-02-24T00:59:14.508Z,94941.69
2023-02-24T01:01:43.587Z,94943.78
2023-02-24T01:04:13.477Z,94938.38
2023-02-24T01:06:44.983Z,94934.41
2023-02-24T01:09:14.917Z,94930.84
2023-02-24T01:12:01.961Z,94924.69
2023-02-24T01:14:32.350Z,94927.13
2023-02-24T01:17:01.194Z,94920.16
2023-02-24T01:19:32.423Z,94925.25
2023-02-24T01:22:03.926Z,94919.63
2023-02-24T01:24:34.255Z,94911.94
2023-02-24T01:27:02.193Z,94906.09
2023-02-24T01:29:30.004Z,94899.13
2023-02-24T01:31:58.656Z,94904.72
2023-02-24T01:34:27.128Z,94901.47
2023-02-24T01:36:56.417Z,94909.75
2023-02-24T01:39:25.895Z,94906.09
2023-02-24T01:41:54.019Z,94905.13
2023-02-24T01:45:13.847Z,94902.56
2023-02-24T01:47:46.986Z,94904.19
2023-02-24T01:50:15.964Z,94898.28
2023-02-24T01:52:50.490Z,94897.41
2023-02-24T01:55:23.941Z,94889.06
2023-02-24T01:57:53.778Z,94899.69
2023-02-24T02:00:38.333Z,94893.97
2023-02-24T02:03:16.367Z,94887.16
2023-02-24T02:05:45.244Z,94891.38
2023-02-24T02:08:15.410Z,94885.16
2023-02-24T02:10:45.153Z,94876.50
2023-02-24T02:13:16.237Z,94876.16
2023-02-24T02:15:56.829Z,94869.13
2023-02-24T02:18:36.292Z,94865.25
2023-02-24T02:21:28.288Z,94871.19
2023-02-24T02:24:13.101Z,94866.47
2023-02-24T02:27:12.157Z,94858.88
2023-02-24T02:30:24.458Z,94863.97
2023-02-24T02:33:21.547Z,94860.63
2023-02-24T02:36:00.590Z,94861.22
2023-02-24T02:38:35.470Z,94863.78
2023-02-24T02:41:11.141Z,94865.91
2023-02-24T02:43:44.103Z,94861.06
2023-02-24T02:46:17.669Z,94866.88
2023-02-24T02:48:51.206Z,94861.09
2023-02-24T02:51:26.231Z,94863.69
2023-02-24T02:54:01.625Z,94864.66
2023-02-24T02:56:31.873Z,94870.94
2023-02-24T02:59:01.805Z,94867.47
2023-02-24T03:01:34.091Z,94862.63
2023-02-24T03:04:06.435Z,94855.66
2023-02-24T03:06:38.789Z,94865.19
2023-02-24T03:09:16.020Z,94853.72
2023-02-24T03:11:48.132Z,94859.84
2023-02-24T03:14:18.808Z,94855.22
2023-02-24T03:16:50.426Z,94853.28
2023-02-24T03:19:22.090Z,94854.31
2023-02-24T03:21:57.771Z,94857.31
2023-02-24T03:24:27.997Z,94852.69
2023-02-24T03:27:06.834Z,94856.19
2023-02-24T03:29:40.648Z,94858.28
2023-02-24T03:32:13.500Z,94858.09
2023-02-24T03:34:50.537Z,94861.00
2023-02-24T03:37:25.624Z,94854.84
2023-02-24T03:39:54.337Z,94854.50
2023-02-24T03:42:23.686Z,94846.19
2023-02-24T03:44:51.531Z,94849.66
2023-02-24T03:47:20.446Z,94852.91
2023-02-24T03:49:48.344Z,94849.38
2023-02-24T03:52:29.543Z,94843.88
2023-02-24T03:55:17.061Z,94838.94
2023-02-24T03:58:02.911Z,94843.19
2023-02-24T04:00:36.122Z,94831.44
2023-02-24T04:03:18.715Z,94831.97
2023-02-24T04:05:53.160Z,94830.25
2023-02-24T04:08:25.150Z,94824.97
2023-02-24T04:10:59.625Z,94821.72
2023-02-24T04:13:35.863Z,94812.53
2023-02-24T04:16:10.383Z,94801.44
2023-02-24T04:18:41.736Z,94801.75
2023-02-24T04:21:09.618Z,94801.84
2023-02-24T04:23:43.277Z,94798.38
2023-02-24T04:26:15.238Z,94802.22
2023-02-24T04:28:44.081Z,94804.41
2023-02-24T04:31:17.515Z,94801.81
2023-02-24T04:33:50.276Z,94810.69
2023-02-24T04:36:18.500Z,94797.56
2023-02-24T04:38:51.079Z,94794.16
2023-02-24T04:41:21.533Z,94789.06
2023-02-24T04:43:50.749Z,94790.41
2023-02-24T04:46:18.909Z,94790.16
2023-02-24T04:48:46.904Z,94780.75
2023-02-24T04:51:14.800Z,94779.44
2023-02-24T04:53:42.588Z,94777.09
2023-02-24T04:56:13.261Z,94772.78
2023-02-24T04:58:43.883Z,94766.91
2023-02-24T05:01:12.294Z,94766.38
2023-02-24T05:03:42.514Z,94763.97
2023-02-24T05:06:16.023Z,94759.38
2023-02-24T05:08:43.804Z,94740.81
2023-02-24T05:11:17.018Z,94749.13
2023-02-24T05:13:47.128Z,94742.09
2023-02-24T05:16:17.535Z,94744.00
2023-02-24T05:18:45.499Z,94746.09
2023-02-24T05:21:33.150Z,94745.56
2023-02-24T05:24:06.443Z,94743.38
2023-02-24T05:26:38.032Z,94730.19
2023-02-24T05:29:07.208Z,94727.75
2023-02-24T05:31:36.912Z,94731.50
2023-02-24T05:34:06.740Z,94724.78
2023-02-24T05:36:36.228Z,94721.31
2023-02-24T05:39:07.694Z,94717.81
2023-02-24T05:41:39.736Z,94706.81
2023-02-24T05:44:09.810Z,94713.25
2023-02-24T05:46:38.904Z,94713.03
2023-02-24T05:49:09.797Z,94712.25
2023-02-24T05:51:43.261Z,94709.59
2023-02-24T05:54:13.379Z,94711.50
2023-02-24T05:56:43.832Z,94714.47
2023-02-24T05:59:18.125Z,94704.84
2023-02-24T06:01:46.655Z,94719.31
2023-02-24T06:04:21.062Z,94715.63
2023-02-24T06:06:52.447Z,94706.50
2023-02-24T06:09:23.213Z,94708.38
2023-02-24T06:11:52.524Z,94700.59
2023-02-24T06:14:21.426Z,94701.69
2023-02-24T06:16:49.429Z,94706.50
2023-02-24T06:19:17.683Z,94700.09
2023-02-24T06:21:45.732Z,94702.78
2023-02-24T06:24:17.975Z,94703.56
2023-02-24T06:26:46.451Z,94703.03
2023-02-24T06:29:16.566Z,94701.38
2023-02-24T06:31:45.384Z,94702.72
2023-02-24T06:34:14.898Z,94702.72
2023-02-24T06:36:43.166Z,94704.31
2023-02-24T06:39:14.476Z,94707.81
2023-02-24T06:41:42.802Z,94712.88
2023-02-24T06:44:10.921Z,94717.19
2023-02-24T06:46:41.275Z,94709.13
2023-02-24T06:49:09.945Z,94721.47
2023-02-24T06:51:37.653Z,94723.91
2023-02-24T06:54:06.201Z,94719.13
2023-02-24T06:56:38.391Z,94720.75
2023-02-24T06:59:11.851Z,94720.00
2023-02-24T07:01:45.294Z,94712.47
2023-02-24T07:04:20.333Z,94714.16
2023-02-24T07:06:52.369Z,94716.56
2023-02-24T07:09:25.025Z,94712.31
2023-02-24T07:11:55.940Z,94711.00
2023-02-24T07:14:26.008Z,94706.72
2023-02-24T07:16:55.520Z,94708.88
2023-02-24T07:19:25.643Z,94701.88
2023-02-24T07:21:59.959Z,94698.91
2023-02-24T07:24:33.115Z,94699.19
2023-02-24T07:27:02.776Z,94696.22
2023-02-24T07:29:32.303Z,94691.63
2023-02-24T07:32:03.466Z,94692.16
2023-02-24T07:34:32.058Z,94681.13
2023-02-24T07:37:02.610Z,94687.00
2023-02-24T07:39:30.441Z,94680.22
2023-02-24T07:41:59.598Z,94670.00
2023-02-24T07:44:29.329Z,94672.63
2023-02-24T07:46:59.185Z,94674.72
2023-02-24T07:49:30.328Z,94669.22
2023-02-24T07:51:58.776Z,94664.00
2023-02-24T07:54:30.156Z,94664.16
2023-02-24T07:56:59.813Z,94667.28
2023-02-24T07:59:30.164Z,94662.94
2023-02-24T08:01:58.243Z,94658.31
2023-02-24T08:04:30.012Z,94659.31
2023-02-24T08:07:02.779Z,94660.91
2023-02-24T08:10:08.087Z,94659.47
2023-02-24T08:12:36.074Z,94648.88
2023-02-24T08:15:17.146Z,94649.28
2023-02-24T08:17:47.311Z,94650.06
2023-02-24T08:20:31.049Z,94644.19
2023-02-24T08:22:58.815Z,94634.72
2023-02-24T08:25:35.780Z,94643.09
2023-02-24T08:28:08.938Z,94633.22
2023-02-24T08:30:45.067Z,94633.06
2023-02-24T08:33:17.413Z,94625.75
2023-02-24T08:35:46.598Z,94622.22
2023-02-24T08:38:16.664Z,94624.63
2023-02-24T08:40:55.607Z,94627.75
2023-02-24T08:43:33.616Z,94615.59
2023-02-24T08:46:12.638Z,94616.66
2023-02-24T08:48:43.127Z,94607.16
2023-02-24T08:51:17.713Z,94596.00
2023-02-24T08:53:47.289Z,94593.91
2023-02-24T08:56:24.441Z,94591.56
2023-02-24T08:59:00.437Z,94588.56
2023-02-24T09:01:34.803Z,94587.06
2023-02-24T09:04:05.890Z,94592.84
2023-02-24T09:06:42.903Z,94584.66
2023-02-24T09:09:18.373Z,94584.91
2023-02-24T09:11:46.790Z,94584.66
2023-02-24T09:14:26.678Z,94571.00
2023-02-24T09:17:12.040Z,94577.66
2023-02-24T09:20:02.130Z,94571.94
2023-02-24T09:22:32.114Z,94560.91
2023-02-24T09:25:21.739Z,94574.31
2023-02-24T09:27:55.037Z,94560.47
2023-02-24T09:30:36.762Z,94559.81
2023-02-24T09:33:21.171Z,94551.97
2023-02-24T09:36:11.200Z,94555.19
2023-02-24T09:38:59.572Z,94545.06
2023-02-24T09:41:33.798Z,94535.88
2023-02-24T09:44:07.507Z,94536.56
2023-02-24T09:46:53.873Z,94541.03
2023-02-24T09:49:25.260Z,94527.38
2023-02-24T09:52:00.665Z,94535.56
2023-02-24T09:54:32.787Z,94525.75
2023-02-24T09:57:09.238Z,94527.69
2023-02-24T10:00:01.041Z,94510.09
2023-02-24T10:02:44.404Z,94509.75
2023-02-24T10:05:22.188Z,94510.88
2023-02-24T10:07:53.123Z,94510.53
2023-02-24T10:10:28.982Z,94502.22
2023-02-24T10:13:13.167Z,94503.72
2023-02-24T10:15:59.197Z,94500.72
2023-02-24T10:18:33.011Z,94485.53
2023-02-24T10:21:07.543Z,94478.22
2023-02-24T10:23:56.475Z,94475.06
2023-02-24T10:26:51.371Z,94477.91
2023-02-24T10:29:36.388Z,94467.19
2023-02-24T10:32:23.524Z,94462.56
2023-02-24T10:34:51.818Z,94458.19
2023-02-24T10:37:28.830Z,94460.09
2023-02-24T10:39:59.419Z,94460.28
2023-02-24T10:42:31.719Z,94448.69
2023-02-24T10:45:17.813Z,94448.31
2023-02-24T10:47:56.356Z,94451.44
2023-02-24T10:50:27.672Z,94450.16
2023-02-24T10:53:26.158Z,94429.38
2023-02-24T10:56:14.868Z,94441.72
2023-02-24T10:58:56.783Z,94435.69
2023-02-24T11:01:43.563Z,94439.78
2023-02-24T11:04:33.327Z,94431.13
2023-02-24T11:07:09.700Z,94421.19
2023-02-24T11:09:44.099Z,94419.59
2023-02-24T11:12:34.443Z,94406.50
2023-02-24T11:15:25.324Z,94405.44
2023-02-24T11:17:58.316Z,94401.56
2023-02-24T11:20:46.419Z,94399.06
2023-02-24T11:23:20.355Z,94389.31
2023-02-24T11:25:53.445Z,94388.69
2023-02-24T11:28:38.109Z,94383.25
2023-02-24T11:31:22.093Z,94378.84
2023-02-24T11:34:00.622Z,94369.22
2023-02-24T11:36:39.501Z,94371.66
2023-02-24T11:39:25.237Z,94363.88
2023-02-24T11:41:56.626Z,94360.09
2023-02-24T11:44:29.293Z,94356.94
2023-02-24T11:47:03.944Z,94348.56
2023-02-24T11:49:39.000Z,94344.16
2023-02-24T11:52:15.151Z,94337.47
2023-02-24T11:54:46.855Z,94331.59
2023-02-24T11:57:19.354Z,94329.03
2023-02-24T11:59:53.352Z,94320.75
2023-02-24T12:02:33.910Z,94316.91
2023-02-24T12:05:07.570Z,94324.28
2023-02-24T12:07:39.040Z,94318.06
2023-02-24T12:10:17.610Z,94313.28
2023-02-24T12:12:50.169Z,94308.81
2023-02-24T12:15:24.558Z,94299.38
2023-02-24T12:18:04.352Z,94294.88
2023-02-24T12:20:40.489Z,94293.59
2023-02-24T12:23:17.279Z,94294.56
2023-02-24T12:26:06.788Z,94291.34
2023-02-24T12:28:51.361Z,94286.09
2023-02-24T12:31:29.439Z,94280.03
2023-02-24T12:34:09.460Z,94285.16
2023-02-24T12:37:22.979Z,94280.38
2023-02-24T12:40:05.480Z,94269.03
2023-02-24T12:42:40.002Z,94264.00
2023-02-24T12:45:17.989Z,94266.03
2023-02-24T12:47:58.177Z,94261.22
2023-02-24T12:50:38.920Z,94263.47
2023-02-24T12:53:19.822Z,94258.50
2023-02-24T12:56:01.552Z,94260.00
2023-02-24T12:58:34.057Z,94251.34
2023-02-24T13:01:12.679Z,94244.75
2023-02-24T13:04:01.006Z,94245.69
2023-02-24T13:06:49.953Z,94254.66
2023-02-24T13:09:27.877Z,94239.34
2023-02-24T13:11:59.928Z,94232.75
2023-02-24T13:14:31.850Z,94229.44
2023-02-24T13:17:08.236Z,94232.09
2023-02-24T13:19:36.827Z,94228.34
2023-02-24T13:22:08.724Z,94225.59
2023-02-24T13:24:37.397Z,94223.91
2023-02-24T13:27:21.706Z,94220.53
2023-02-24T13:29:50.834Z,94221.25
2023-02-24T13:32:28.887Z,94210.88
2023-02-24T13:34:58.836Z,94209.44
2023-02-24T13:37:34.526Z,94199.66
2023-02-24T13:40:16.468Z,94196.19
2023-02-24T13:42:57.613Z,94199.13
2023-02-24T13:45:26.607Z,94189.03
2023-02-24T13:48:30.671Z,94182.78
2023-02-24T13:51:29.315Z,94183.22
2023-02-24T13:54:12.285Z,94183.63
2023-02-24T13:56:46.120Z,94184.63
2023-02-24T13:59:44.206Z,94181.44
2023-02-24T14:02:17.886Z,94184.22
2023-02-24T14:04:49.376Z,94194.34
2023-02-24T14:07:22.429Z,94189.69
2023-02-24T14:09:56.676Z,94190.97
2023-02-24T14:12:27.663Z,94186.06
2023-02-24T14:14:56.547Z,94183.03
2023-02-24T14:17:28.747Z,94183.19
2023-02-24T14:19:57.680Z,94183.50
2023-02-24T14:22:25.403Z,94182.03
2023-02-24T14:25:03.837Z,94172.16
2023-02-24T14:27:32.090Z,94177.78
2023-02-24T14:30:00.342Z,94163.53
2023-02-24T14:32:29.604Z,94160.03
2023-02-24T14:34:57.484Z,94157.31
2023-02-24T14:37:28.114Z,94169.16
2023-02-24T14:39:57.652Z,94173.66
2023-02-24T14:42:27.914Z,94169.66
2023-02-24T14:44:57.329Z,94158.78
2023-02-24T14:47:27.330Z,94159.91
2023-02-24T14:49:57.186Z,94168.81
2023-02-24T14:52:32.058Z,94157.16
2023-02-24T14:55:04.908Z,94151.41
2023-02-24T14:57:39.298Z,94155.38
2023-02-24T15:00:11.802Z,94148.53
2023-02-24T15:02:46.719Z,94155.66
2023-02-24T15:05:14.495Z,94152.44
2023-02-24T15:07:45.754Z,94156.56
2023-02-24T15:10:22.131Z,94152.56
2023-02-24T15:12:55.282Z,94156.38
2023-02-24T15:15:26.931Z,94142.97
2023-02-24T15:17:57.161Z,94111.28
2023-02-24T15:20:34.972Z,94128.97
2023-02-24T15:23:03.207Z,94138.41
2023-02-24T15:25:42.453Z,94130.47
2023-02-24T15:28:25.821Z,94137.91
2023-02-24T15:31:10.903Z,94148.94
2023-02-24T15:33:40.588Z,94133.44
2023-02-24T15:36:12.312Z,94122.63
2023-02-24T15:38:42.407Z,94119.25
2023-02-24T15:41:11.928Z,94120.84
2023-02-24T15:43:48.022Z,94105.38
2023-02-24T15:46:22.996Z,94113.63
2023-02-24T15:48:53.015Z,94095.25
2023-02-24T15:51:31.894Z,94095.22
2023-02-24T15:54:01.441Z,94090.25
2023-02-24T15:56:29.651Z,94083.72
2023-02-24T15:59:02.480Z,94087.09
2023-02-24T16:01:30.847Z,94076.56
2023-02-24T16:03:58.619Z,94075.28
2023-02-24T16:06:28.433Z,94073.03
2023-02-24T16:08:58.762Z,94070.78
2023-02-24T16:11:29.694Z,94069.19
2023-02-24T16:14:00.866Z,94073.16
2023-02-24T16:16:28.711Z,94065.66
2023-02-24T16:18:57.189Z,94066.75
2023-02-24T16:21:24.908Z,94062.44
2023-02-24T16:23:52.714Z,94065.47
2023-02-24T16:26:24.027Z,94067.19
2023-02-24T16:28:55.023Z,94082.94
2023-02-24T16:31:26.284Z,94088.03
2023-02-24T16:33:55.952Z,94069.59
2023-02-24T16:36:26.189Z,94065.78
2023-02-24T16:38:54.082Z,94070.88
2023-02-24T16:41:21.864Z,94073.53
2023-02-24T16:43:49.661Z,94094.81
2023-02-24T16:46:19.653Z,94096.03
2023-02-24T16:48:53.908Z,94100.44
2023-02-24T16:51:22.798Z,94099.19
2023-02-24T16:53:50.551Z,94111.84
2023-02-24T16:56:18.234Z,94113.69
2023-02-24T16:58:45.973Z,94102.59
2023-02-24T17:01:20.105Z,94107.88
2023-02-24T17:03:51.257Z,94111.22
2023-02-24T17:06:21.869Z,94110.31
2023-02-24T17:08:50.382Z,94120.63
2023-02-24T17:11:20.636Z,94116.94
2023-02-24T17:13:48.475Z,94125.47
2023-02-24T17:16:16.278Z,94118.28
2023-02-24T17:18:44.042Z,94108.81
2023-02-24T17:21:14.396Z,94112.91
2023-02-24T17:23:43.542Z,94118.22
2023-02-24T17:26:15.173Z,94108.63
2023-02-24T17:28:42.966Z,94100.13
2023-02-24T17:31:10.870Z,94102.13
2023-02-24T17:33:38.774Z,94098.31
2023-02-24T17:36:06.932Z,94086.84
2023-02-24T17:38:36.015Z,94078.56
2023-02-24T17:41:03.725Z,94076.06
2023-02-24T17:43:31.430Z,94080.66
2023-02-24T17:45:59.143Z,94099.34
2023-02-24T17:48:26.857Z,94094.03
2023-02-24T17:50:54.564Z,94094.75
2023-02-24T17:53:22.339Z,94067.56
2023-02-24T17:56:02.194Z,94064.38
2023-02-24T17:58:30.962Z,94068.38
2023-02-24T18:00:58.650Z,94053.06
2023-02-24T18:03:26.414Z,94052.28
2023-02-24T18:05:59.512Z,94053.97
2023-02-24T18:08:27.263Z,94049.19
2023-02-24T18:10:56.369Z,94044.19
2023-02-24T18:13:24.171Z,94035.88
2023-02-24T18:15:52.001Z,94036.69
2023-02-24T18:18:19.814Z,94031.78
2023-02-24T18:20:47.572Z,94031.47
2023-02-24T18:23:16.027Z,94027.09
2023-02-24T18:25:43.809Z,94026.19
2023-02-24T18:28:12.881Z,94018.91
2023-02-24T18:30:41.154Z,94016.19
2023-02-24T18:33:09.006Z,94016.50
2023-02-24T18:35:38.742Z,94010.50
2023-02-24T18:38:06.800Z,94000.19
2023-02-24T18:40:34.548Z,94007.97
2023-02-24T18:43:02.293Z,94004.31
2023-02-24T18:45:32.612Z,93996.69
2023-02-24T18:48:04.839Z,94000.59
2023-02-24T18:50:34.138Z,93994.91
2023-02-24T18:53:01.863Z,93993.81
2023-02-24T18:55:29.903Z,93991.13
2023-02-24T18:57:57.612Z,93984.91
2023-02-24T19:00:26.929Z,93985.41
2023-02-24T19:02:58.011Z,93990.19
2023-02-24T19:05:36.762Z,93992.88
2023-02-24T19:08:05.830Z,93989.38
2023-02-24T19:10:33.572Z,93987.09
2023-02-24T19:13:01.260Z,93989.78
2023-02-24T19:15:28.974Z,93995.78
2023-02-24T19:17:58.091Z,93981.69
2023-02-24T19:20:25.927Z,93987.88
2023-02-24T19:22:53.722Z,93987.78
2023-02-24T19:25:21.568Z,93988.09
2023-02-24T19:27:49.355Z,93984.88
2023-02-24T19:30:17.595Z,93985.88
2023-02-24T19:32:45.450Z,93980.66
2023-02-24T19:35:14.664Z,93982.75
2023-02-24T19:37:42.522Z,93988.34
2023-02-24T19:40:11.686Z,94029.63
2023-02-24T19:42:40.294Z,94025.53
2023-02-24T19:45:09.602Z,94002.25
2023-02-24T19:47:37.321Z,94007.69
2023-02-24T19:50:05.324Z,93997.91
2023-02-24T19:52:34.438Z,93994.31
2023-02-24T19:55:02.298Z,93989.72
2023-02-24T19:57:30.145Z,93985.84
2023-02-24T19:59:57.865Z,93985.25
2023-02-24T20:02:25.851Z,93988.25
2023-02-24T20:04:53.715Z,93986.94
2023-02-24T20:07:22.358Z,93990.75
2023-02-24T20:09:51.614Z,93998.03
2023-02-24T20:12:19.358Z,93997.53
2023-02-24T20:14:47.080Z,94013.72
2023-02-24T20:17:14.918Z,94010.59
2023-02-24T20:19:45.217Z,94005.22
2023-02-24T20:22:12.945Z,93995.06
2023-02-24T20:24:40.743Z,93998.03
2023-02-24T20:27:09.871Z,93994.72
2023-02-24T20:29:39.425Z,93991.72
2023-02-24T20:32:07.236Z,93990.63
2023-02-24T20:34:37.386Z,93981.25
2023-02-24T20:37:06.501Z,93974.34
2023-02-24T20:39:34.823Z,93975.44
2023-02-24T20:42:02.567Z,93972.06
2023-02-24T20:44:31.708Z,93968.38
2023-02-24T20:46:59.702Z,93976.03
2023-02-24T20:49:27.808Z,93979.66
2023-02-24T20:51:55.522Z,93980.25
2023-02-24T20:54:24.446Z,93974.66
2023-02-24T20:56:52.286Z,93969.56
2023-02-24T20:59:21.952Z,93974.16
2023-02-24T21:01:51.778Z,93976.06
2023-02-24T21:04:21.517Z,93981.16
2023-02-24T21:06:51.381Z,93986.84
2023-02-24T21:09:22.138Z,93993.03
2023-02-24T21:11:49.953Z,94005.53
2023-02-24T21:14:18.281Z,94012.09
2023-02-24T21:16:47.020Z,94000.88
2023-02-24T21:19:17.734Z,94010.63
2023-02-24T21:21:45.561Z,94010.28
2023-02-24T21:24:13.362Z,94005.28
2023-02-24T21:26:41.270Z,94011.56
2023-02-24T21:29:08.964Z,94003.19
2023-02-24T21:31:36.833Z,93996.56
2023-02-24T21:34:04.910Z,93994.84
2023-02-24T21:36:34.039Z,94007.88
2023-02-24T21:39:02.152Z,93998.56
2023-02-24T21:41:29.945Z,93992.75
2023-02-24T21:44:00.460Z,94003.75
2023-02-24T21:46:29.029Z,94007.75
2023-02-24T21:48:57.801Z,93996.03
2023-02-24T21:51:27.062Z,93996.97
2023-02-24T21:53:57.085Z,93995.22
2023-02-24T21:56:26.380Z,93985.91
2023-02-24T21:58:57.380Z,93990.34
2023-02-24T22:01:27.207Z,93981.59
2023-02-24T22:03:55.770Z,93979.97
2023-02-24T22:06:24.291Z,93977.66
2023-02-24T22:08:52.164Z,93985.19
2023-02-24T22:11:22.696Z,93990.84
2023-02-24T22:13:50.825Z,93995.38
2023-02-24T22:16:21.546Z,94003.50
2023-02-24T22:18:50.625Z,94014.84
2023-02-24T22:21:19.942Z,94007.44
2023-02-24T22:23:49.373Z,93999.94
2023-02-24T22:26:17.963Z,94002.38
2023-02-24T22:28:47.940Z,94005.13
2023-02-24T22:31:18.111Z,94002.03
2023-02-24T22:33:46.593Z,94004.47
2023-02-24T22:36:16.309Z,93996.28
2023-02-24T22:38:45.569Z,94003.50
2023-02-24T22:41:15.277Z,93993.34
2023-02-24T22:43:43.632Z,93986.75
2023-02-24T22:46:15.476Z,93986.25
2023-02-24T22:48:43.876Z,93966.69
2023-02-24T22:51:13.390Z,93977.94
2023-02-24T22:53:46.467Z,93980.59
2023-02-24T23:00:46.638Z,93988.91
2023-02-24T23:03:15.012Z,94000.44
2023-02-24T23:05:42.742Z,94016.25
2023-02-24T23:08:10.885Z,94046.31
2023-02-24T23:10:38.535Z,94068.78
2023-02-24T23:13:09.106Z,94073.16
2023-02-24T23:15:38.913Z,94072.06
2023-02-24T23:18:09.070Z,94083.06
2023-02-24T23:20:36.764Z,94077.19
2023-02-24T23:23:04.500Z,94074.25
2023-02-24T23:25:32.227Z,94076.19
2023-02-24T23:28:00.321Z,94093.66
2023-02-24T23:30:28.086Z,94086.19
2023-02-24T23:32:56.077Z,94085.59
2023-02-24T23:35:25.229Z,94086.47
2023-02-24T23:37:52.902Z,94086.75
2023-02-24T23:40:25.824Z,94099.09
2023-02-24T23:42:54.320Z,94104.97
2023-02-24T23:45:23.575Z,94111.13
2023-02-24T23:47:51.296Z,94118.13
2023-02-24T23:50:19.177Z,94117.38
2023-02-24T23:52:48.600Z,94098.94
2023-02-24T23:55:16.709Z,94119.03
2023-02-24T23:57:44.424Z,94122.00
